Tiempo atmosférico en la estación meteorológica de Gijón, Campus, Asturias (26 m.)



Fecha
DESCASC
Temp. máxima en grados centígrados (hora)
DESCASC
Temp. mínima en grados centígrados (hora)
DESCASC
Temp. media en grados centígrados
DESCASC
Racha de viento máxima en m/sg (hora)
DESCASC
Velocidad máxima media en intervalos de 10 minutos(hora)
DESCASC
Precipitaciones diarias en mm
DESCASC
Precipitaciones de 00:00 a 06:00 en mm
DESCASC
Precipitaciones de 06:00 a 12:00 en mm
DESCASC
Precipitaciones de 12:00 a 18:00 en mm
DESCASC
Precipitaciones de 18:00 a 24:00 en mm
DESCASC
25-04-2019 19.8 (15:20) 6.3 (05:40) 13 13.06 (21:10) 6.94 (19:40) 2 0 0 0 2
24-04-2019 15.5 (17:00) 3.9 (04:50) 9.7 10.28 (20:40) 5 (20:40) 0.4 0 0 0.2 0.2
23-04-2019 15 (13:30) 8 (23:40) 11.5 8.61 (17:40) 4.72 (13:40) 12.8 0.6 1.8 7.4 3
22-04-2019 21.8 (17:20) 5.9 (00:00) 13.8 6.94 (17:40) 5 (17:40) 0 0 0 0 0
21-04-2019 17.7 (16:50) 7 (00:00) 12.4 5.83 (17:30) 3.61 (13:10) 0 0 0 0 0
20-04-2019 19.4 (14:00) 6.5 (00:00) 12.9 5.28 (15:30) 3.89 (14:20) 0 0 0 0 0
19-04-2019 19.7 (18:10) 11 (00:00) 15.4 9.44 (17:20) 5 (17:20) 4 2 2 0 0
18-04-2019 17.3 (13:20) 9.8 (00:00) 13.5 8.33 (16:10) 4.17 (16:30) 2.2 0 0 0.2 2
17-04-2019 26 (14:30) 9.5 (00:00) 17.8 7.5 (19:50) 4.17 (19:50) 0 0 0 0 0
16-04-2019 18 (14:00) 4.6 (00:00) 11.3 9.72 (15:00) 5 (15:00) 0 0 0 0 0
15-04-2019 16.9 (00:00) 10.4 (00:00) 13.6 11.67 (14:30) 5.56 (14:30) 11.6 0 2.2 9.2 0.2
14-04-2019 23.3 (16:20) 11.6 (00:00) 17.4 8.06 (23:20) 3.61 (23:00) 0 0 0 0 0
13-04-2019 19.7 (15:40) 5.6 (00:00) 12.7 6.94 (15:30) 4.44 (15:00) 0 0 0 0 0
12-04-2019 16.7 (17:40) 3 (00:00) 9.9 8.33 (13:40) 4.72 (12:20) 0 0 0 0 0
11-04-2019 13 (15:30) 7.6 (00:00) 10.3 6.11 (14:30) 3.33 (16:20) 1 0 0.4 0.6 0
10-04-2019 14.7 (15:40) 9.1 (00:00) 11.9 8.33 (08:30) 4.72 (13:40) 10.2 2.6 5.8 0 1.8
09-04-2019 17.1 (16:10) 7.1 (00:00) 12.1 9.72 (21:50) 3.89 (16:50) 1.4 0 0.4 0 1
08-04-2019 16.9 (12:00) 8.6 (00:00) 12.8 8.06 (22:00) 4.72 (13:50) 1 0.6 0 0 0.4
07-04-2019 15.5 (13:20) 6.9 (00:00) 11.2 7.5 (15:00) 5 (15:00) 10.8 9.2 0 0 1.6
06-04-2019 13.2 (14:50) 3.1 (00:00) 8.1 9.44 (15:20) 5.56 (15:20) -- 0 -- 6.8 7
05-04-2019 -- (--) -- (--) -- -- (--) -- (--) -- 1.2 0 -- --
04-04-2019 14.7 (13:40) 4.9 (00:00) 9.8 10.83 (16:30) 4.44 (02:50) 2.4 1.8 0 0 0.6
03-04-2019 11.2 (15:10) 5.7 (00:00) 8.4 15.83 (16:00) 6.94 (16:00) 15.8 2.6 6.4 4.6 2.2
02-04-2019 15.4 (14:30) 7.1 (00:00) 11.2 8.61 (15:30) 5.28 (15:10) 0 0 0 0 0
01-04-2019 17.9 (16:20) 3.4 (00:00) 10.6 6.39 (16:20) 4.44 (16:20) 0 0 0 0 0
31-03-2019 17.2 (16:30) 6.9 (00:00) 12.1 7.78 (15:50) 5.28 (15:50) 0 0 0 0 0
30-03-2019 17.4 (13:50) 6.2 (00:00) 11.8 6.39 (14:20) 3.89 (13:10) 0 0 0 0 0
29-03-2019 15.8 (14:30) 2.5 (00:00) 9.2 9.17 (14:40) 5.28 (14:50) 0 0 0 0 0
28-03-2019 16 (13:00) 2.3 (00:00) 9.1 10.28 (18:00) 5.28 (13:50) 0 0 0 0 0
27-03-2019 15.2 (13:30) 7 (00:00) 11.1 12.22 (14:40) 6.67 (17:40) 0 0 0 0 0

Gráficas

Temp. máximas Temp. mínimas Temp. medias Precipitaciones Rachas de viento máximas Velocidades máximas media en intervalos de 10 minutos

Datos horarios

Fecha y hora oficial Temperatura (ºC) Velocidad del viento (km/h) Dirección del viento Racha (km/h) Dirección de racha Precipitación (mm) Presión (hPa) Tendencia (hPa) Humedad (%)
2019-04-25 23:00:00 9.6 5 Oeste 12 Sudoeste 0 1008.8 3.8 84
2019-04-25 22:00:00 8.9 6 Sur 47 Oeste 2 1007.8 3.6 88
2019-04-25 21:00:00 11.8 17 Sudoeste 46 Oeste 0 1007.1 4.4 62
2019-04-25 20:00:00 14 15 Oeste 46 Oeste 0 1005 4.1 48
2019-04-25 19:00:00 15 19 Oeste 44 Oeste 0 1004.2 3.7 42
2019-04-25 18:00:00 16 20 Oeste 42 Oeste 0 1002.7 2.7 37
2019-04-25 17:00:00 17.3 12 Oeste 30 Sudoeste 0 1000.9 1 33
2019-04-25 16:00:00 18 12 Sur 31 Sudoeste 0 1000.5 0.6 32
2019-04-25 15:00:00 18.9 13 Sur 26 Sur 0 1000 0 31
2019-04-25 14:00:00 18.1 9 Sudoeste 32 Sudoeste 0 999.9 0.1 32
2019-04-25 13:00:00 18 11 Sudoeste 24 Sudoeste 0 999.9 0.5 33
2019-04-25 12:00:00 16.6 12 Sudoeste 22 Sur 0 1000 0.9 43
2019-04-25 11:00:00 15 9 Oeste 20 Oeste 0 999.8 1.4 47
2019-04-25 10:00:00 12.6 5 Sur 14 Sudoeste 0 999.4 1.8 59
2019-04-25 09:00:00 9.7 3 Sur 10 Sur 0 999.1 2 70
2019-04-25 08:00:00 6.6 3 Sudeste 8 Sudeste 0 998.4 1.6 89
2019-04-25 07:00:00 6.5 4 Sudeste 9 Este 0 997.6 0.9 89
2019-04-25 06:00:00 6.5 3 Este 8 Este 0 997.1 0.8 86
2019-04-25 05:00:00 7 0 Calma 8 Sur 0 996.8 0.3 81
2019-04-25 04:00:00 7.7 5 Sur 10 Sur 0 996.7 0.8 77
2019-04-25 03:00:00 7.6 4 Sur 9 Sudeste 0 996.3 0.9 86
2019-04-25 02:00:00 9.4 5 Sur 12 Sur 0 996.5 1.6 75
2019-04-25 01:00:00 9.6 5 Sur 14 Sur 0 995.9 1.4 76
2019-04-25 00:00:00 9.6 4 Sur 12 Oeste 0 995.4 1.9 77
2019-04-24 23:00:00 10.2 6 Sur 12 Sur 0 994.9 3.1 77
2019-04-24 22:00:00 10.8 6 Sudoeste 34 Oeste 0.2 994.5 3.3 77
2019-04-24 21:00:00 12.4 14 Oeste 37 Oeste 0 993.5 3.2 62
2019-04-24 20:00:00 12.9 8 Este 17 Sudeste 0 991.8 2.1 80
2019-04-24 19:00:00 13.7 8 Este 16 Este 0 991.2 1.6 72
2019-04-24 18:00:00 14.5 9 Este 18 Norte 0 990.3 0.6 65
2019-04-24 17:00:00 15.4 5 Este 16 Este 0 989.7 0.1 64
2019-04-24 16:00:00 13.9 6 Nordeste 21 Nordeste 0 989.6 -0.1 69
2019-04-24 15:00:00 14.9 10 Norte 20 Norte 0 989.7 -0.7 64
2019-04-24 14:00:00 14.5 7 Nordeste 21 Nordeste 0 989.6 -0.7 60
2019-04-24 13:00:00 14.6 11 Norte 17 Norte 0.2 989.7 -1.1 65
2019-04-24 12:00:00 12.6 6 Norte 9 Norte 0 990.4 -0.8 71
2019-04-24 11:00:00 11.4 4 Norte 5 Norte 0 990.3 -1.3 86
2019-04-24 10:00:00 9.3 2 Este 5 Sudoeste 0 990.8 -1.6 94
2019-04-24 09:00:00 7.1 0 Calma 5 Oeste 0 991.2 -2.2 99
2019-04-24 08:00:00 5.9 3 Sudeste 14 Sudeste 0 991.6 -2 100
2019-04-24 07:00:00 5.1 0 Calma 8 Sudeste 0 992.4 -1.9 100
2019-04-24 06:00:00 4.5 6 Sudeste 8 Sudeste 0 993.4 -1.6 100
2019-04-24 05:00:00 3.9 3 Sur 7 Sudeste 0 993.6 -1.5 99
2019-04-24 04:00:00 4.6 2 Sur 10 Sudeste 0 994.3 -0.9 98
2019-04-24 03:00:00 5.5 5 Sudeste 9 Sudeste 0 995 -0.4 98
2019-04-24 02:00:00 6.6 3 Sudeste 5 Sudeste 0 995.1 0 97
2019-04-24 01:00:00 7.5 4 Sudeste 7 Sudeste 0 995.2 0.4 98
2019-04-24 00:00:00 8 4 Sudeste 7 Este 0 995.4 1.4 98
2019-04-23 23:00:00 8.4 6 Sudeste 10 Sudeste 0 995.1 1.5 97
2019-04-23 22:00:00 8.7 4 Sudeste 8 Sudeste 0 994.8 1.5 95
2019-04-23 21:00:00 10.7 3 Sudeste 5 Sudoeste 0 994 0.7 89
2019-04-23 20:00:00 11.3 2 Sur 8 Sudeste 0 993.6 1.7 79
2019-04-23 19:00:00 9.5 4 Sudeste 8 Sudeste 3 993.3 2.1 96
2019-04-23 18:00:00 9.1 4 Sur 31 Oeste 7.4 993.3 2.6 91
2019-04-23 17:00:00 12.6 7 Nordeste 17 Nordeste 0 991.9 1.3 77
2019-04-23 16:00:00 13.7 9 Nordeste 21 Nordeste 0 991.2 0.4 78
2019-04-23 15:00:00 14.5 10 Nordeste 22 Norte 0 990.7 -0.5 74
2019-04-23 14:00:00 14.1 16 Norte 24 Norte 0 990.6 -0.3 79
2019-04-23 13:00:00 14.2 8 Nordeste 16 Nordeste 0 990.8 0 77
2019-04-23 12:00:00 12.4 5 Este 10 Este 0.2 991.2 1 89
2019-04-23 11:00:00 11 3 Sur 6 Sur 0.6 990.9 1.2 94
2019-04-23 10:00:00 10.6 2 Oeste 17 Noroeste 1 990.8 1.5 91
2019-04-23 09:00:00 11.5 8 Noroeste 15 Noroeste 0 990.2 0.6 88
2019-04-23 08:00:00 11.4 0 Calma 6 Sudeste 0 989.7 -0.1 91
2019-04-23 07:00:00 11.4 4 Sudeste 8 Sudeste 0 989.3 -0.6 91
2019-04-23 06:00:00 11.8 3 Sur 19 Noroeste 0 989.6 -0.6 88
2019-04-23 05:00:00 12.4 6 Norte 10 Noroeste 0 989.8 -0.7 93
2019-04-23 04:00:00 12.4 5 Noroeste 12 Noroeste 0.2 989.9 -0.7 93
2019-04-23 03:00:00 12.5 2 Sur 6 Sur 0.2 990.2 -0.7 94
2019-04-23 02:00:00 13.2 2 Noroeste 7 Oeste 0.2 990.5 -0.6 89
2019-04-23 01:00:00 13.6 3 Sudeste 8 Noroeste 0 990.6 -0.2 84
2019-04-23 00:00:00 14.1 3 Sudoeste 10 Oeste 0 990.9 0.2 84
2019-04-22 23:00:00 14.3 5 Norte 12 Norte 0 991.1 0 89
2019-04-22 22:00:00 15 2 Oeste 11 Este 0 990.8 -0.5 76
2019-04-22 21:00:00 15.5 7 Este 16 Este 0 990.7 -0.8 72
2019-04-22 20:00:00 16.6 8 Norte 15 Norte 0 991.1 -1 71
2019-04-22 19:00:00 19.9 5 Nordeste 19 Nordeste 0 991.3 -1.8 49
2019-04-22 18:00:00 20.4 13 Nordeste 25 Nordeste 0 991.5 -2.6 53
2019-04-22 17:00:00 21.3 10 Nordeste 24 Nordeste 0 992.1 -3.1 50
2019-04-22 16:00:00 20.3 12 Nordeste 24 Norte 0 993.1 -3.3 49
2019-04-22 15:00:00 19.8 13 Nordeste 22 Nordeste 0 994.1 -3.6 53
2019-04-22 14:00:00 18.3 10 Nordeste 18 Norte 0 995.2 -3.6 67
2019-04-22 13:00:00 17.1 12 Norte 17 Norte 0 996.4 -3.3 72
2019-04-22 12:00:00 15.8 8 Norte 15 Norte 0 997.7 -2.8 79
2019-04-22 11:00:00 14.5 3 Norte 7 Norte 0 998.8 -2 75
2019-04-22 10:00:00 11.5 2 Noroeste 4 Sudeste 0 999.7 -1.6 87
2019-04-22 09:00:00 8.1 4 Sudeste 6 Sudeste 0 1000.5 -1.6 100
2019-04-22 08:00:00 6 3 Sudeste 6 Sudeste 0 1000.8 -2.4 99
2019-04-22 07:00:00 6.2 2 Sudeste 5 Sudeste 0 1001.3 -2.8 98
2019-04-22 06:00:00 6.7 2 Sudeste 7 Este 0 1002.1 -3.1 98
2019-04-22 05:00:00 7.2 4 Sudeste 7 Este 0 1003.2 -3 98
2019-04-22 04:00:00 7.8 4 Sudeste 6 Sudeste 0 1004.1 -3.1 97
2019-04-22 03:00:00 8.7 0 Calma 5 Sudeste 0 1005.2 -2.7 97
2019-04-22 02:00:00 9.2 2 Nordeste 4 Sur 0 1006.2 -2.4 95
2019-04-22 01:00:00 10.2 3 Sur 4 Sur 0 1007.2 -1.7 93
2019-04-22 00:00:00 11.8 5 Este 13 Este 0 1007.9 -0.7 88
2019-04-21 23:00:00 12.2 8 Este 16 Este 0 1008.6 0 90
2019-04-21 22:00:00 12.7 5 Este 12 Nordeste 0 1008.9 -0.1 90
2019-04-21 21:00:00 14.5 6 Norte 14 Nordeste 0 1008.6 -0.9 84
2019-04-21 20:00:00 15.6 9 Nordeste 18 Norte 0 1008.6 -1.5 80
2019-04-21 19:00:00 15.9 12 Norte 19 Norte 0 1009 -1.8 80
2019-04-21 18:00:00 16.9 12 Norte 21 Norte 0 1009.5 -2.1 76
2019-04-21 17:00:00 17.6 9 Nordeste 17 Norte 0 1010.1 -2.2 74
2019-04-21 16:00:00 17.1 9 Norte 17 Norte 0 1010.8 -2.2 77
2019-04-21 15:00:00 16.2 12 Norte 17 Norte 0 1011.6 -1.8 83
2019-04-21 14:00:00 15.3 10 Norte 18 Norte 0 1012.3 -1.3 82
2019-04-21 13:00:00 16.8 11 Norte 16 Norte 0 1013 -1.3 77
2019-04-21 12:00:00 16.6 10 Noroeste 15 Noroeste 0 1013.4 -0.6 67
2019-04-21 11:00:00 13.7 4 Oeste 12 Sur 0 1013.6 -0.6 78
2019-04-21 10:00:00 9.8 6 Este 10 Este 0 1014.3 -0.1 94
2019-04-21 09:00:00 7.8 5 Sudeste 6 Sudeste 0 1014 -0.7 99
2019-04-21 08:00:00 7.1 3 Sudeste 5 Sudeste 0 1014.2 -1 98
2019-04-21 07:00:00 7.5 3 Sudeste 8 Sudeste 0 1014.4 -1 98
2019-04-21 06:00:00 7.6 4 Sudeste 8 Sudeste 0 1014.7 -1.5 98
2019-04-21 05:00:00 7.9 3 Sudeste 6 Sudeste 0 1015.2 -1.8 97
2019-04-21 04:00:00 8.8 3 Oeste 7 Sudeste 0 1015.4 -1.8 96
2019-04-21 03:00:00 9.6 5 Sudeste 7 Sudeste 0 1016.2 -1.6 95
2019-04-21 02:00:00 9.6 3 Sudeste 6 Sudeste 0 1017 -0.8 95
2019-04-21 01:00:00 9.8 5 Sudeste 6 Sudeste 0 1017.2 -0.3 95
2019-04-21 00:00:00 10.4 5 Sudeste 7 Sudeste 0 1017.8 0.7 93
2019-04-20 23:00:00 11.8 4 Sudeste 6 Sudeste 0 1017.8 0.6 91
2019-04-20 22:00:00 13.7 3 Sudeste 11 Nordeste 0 1017.5 0.3 87
2019-04-20 21:00:00 15.4 6 Noroeste 10 Nordeste 0 1017.1 -0.3 79
2019-04-20 20:00:00 17.3 5 Nordeste 17 Norte 0 1017.2 -0.6 68
2019-04-20 19:00:00 18 9 Norte 15 Norte 0 1017.2 -1.1 62
2019-04-20 18:00:00 18.3 9 Norte 15 Norte 0 1017.4 -1.2 55
2019-04-20 17:00:00 18 10 Norte 14 Norte 0 1017.8 -1.4 62
2019-04-20 16:00:00 18 7 Norte 19 Nordeste 0 1018.3 -1.4 63
2019-04-20 15:00:00 19.2 10 Norte 18 Norte 0 1018.6 -1.8 60
2019-04-20 14:00:00 19.4 8 Nordeste 17 Norte 0 1019.2 -1.5 60
2019-04-20 13:00:00 18.8 9 Norte 13 Nordeste 0 1019.7 -1.2 65
2019-04-20 12:00:00 18.2 8 Noroeste 12 Noroeste 0 1020.4 -0.6 66
2019-04-20 11:00:00 16.4 3 Noroeste 8 Noroeste 0 1020.7 0 73
2019-04-20 10:00:00 12.8 4 Norte 6 Norte 0 1020.9 0.5 92
2019-04-20 09:00:00 8.7 3 Sudeste 5 Sudeste 0 1021 0.9 100
2019-04-20 08:00:00 6.6 2 Sudeste 5 Sudeste 0 1020.7 0.3 99
2019-04-20 07:00:00 6.7 3 Este 6 Sudeste 0 1020.4 -0.4 99
2019-04-20 06:00:00 7.2 3 Sudeste 8 Este 0 1020.1 -0.8 98
2019-04-20 05:00:00 7.6 5 Sudeste 6 Sudeste 0 1020.4 -0.3 98
2019-04-20 04:00:00 8 5 Sudeste 8 Sudeste 0 1020.8 -0.3 97
2019-04-20 03:00:00 8.4 6 Sudeste 8 Sudeste 0 1020.9 0.1 96
2019-04-20 02:00:00 9.1 3 Este 8 Sudeste 0 1020.7 -0.2 95
2019-04-20 01:00:00 9.9 5 Sudeste 8 Sudeste 0 1021.1 0.9 93
2019-04-20 00:00:00 11 3 Sudeste 10 Sudeste 0 1020.8 1.7 88
2019-04-19 23:00:00 13 6 Sudeste 14 Nordeste 0 1020.9 2.6 77
2019-04-19 22:00:00 14.4 8 Nordeste 16 Nordeste 0 1020.2 2.4 76
2019-04-19 21:00:00 16.9 8 Nordeste 19 Este 0 1019.1 1.9 64
2019-04-19 20:00:00 18.3 9 Este 29 Este 0 1018.3 1.5 54
2019-04-19 19:00:00 19.4 14 Este 32 Este 0 1017.8 1 53
2019-04-19 18:00:00 19.4 16 Este 34 Este 0 1017.2 0.9 53
2019-04-19 17:00:00 18.5 17 Este 33 Este 0 1016.8 0.8 65
2019-04-19 16:00:00 17.8 10 Nordeste 28 Nordeste 0 1016.8 0.6 69
2019-04-19 15:00:00 18.6 10 Este 22 Este 0 1016.3 0.4 67
2019-04-19 14:00:00 17.9 6 Sudeste 15 Sudeste 0 1016 0.4 71
2019-04-19 13:00:00 16.1 8 Este 21 Este 0 1016.2 1.2 78
2019-04-19 12:00:00 15.5 8 Este 22 Este 0 1015.9 1.4 88
2019-04-19 11:00:00 14.2 8 Este 18 Este 0 1015.6 1.8 91
2019-04-19 10:00:00 13.7 8 Este 14 Este 0 1015 1.5 95
2019-04-19 09:00:00 12.9 6 Nordeste 18 Nordeste 0.4 1014.5 1.5 98
2019-04-19 08:00:00 12.6 7 Nordeste 15 Este 1.6 1013.8 0.5 98
2019-04-19 07:00:00 12.4 2 Norte 6 Norte 0 1013.5 -0.3 98
2019-04-19 06:00:00 12.4 4 Norte 12 Nordeste 0.2 1013 -0.7 98
2019-04-19 05:00:00 12.3 6 Nordeste 12 Nordeste 0.4 1013.3 -0.5 98
2019-04-19 04:00:00 12.2 4 Nordeste 9 Este 1 1013.8 -0.4 97
2019-04-19 03:00:00 12.2 4 Este 8 Nordeste 0.2 1013.7 -0.6 96
2019-04-19 02:00:00 12.2 3 Nordeste 8 Norte 0.2 1013.8 -0.2 96
2019-04-19 01:00:00 12.4 3 Nordeste 11 Este 0 1014.2 0.4 96
2019-04-19 00:00:00 12.4 4 Norte 9 Nordeste 0 1014.3 1.1 96
2019-04-18 23:00:00 12.6 5 Este 13 Este 0.2 1014 1.4 96
2019-04-18 22:00:00 12.6 6 Este 12 Este 0 1013.8 1.8 94
2019-04-18 21:00:00 12.8 4 Nordeste 10 Nordeste 0.6 1013.2 1.7 95
2019-04-18 20:00:00 13.4 5 Nordeste 13 Nordeste 0.6 1012.6 1.4 92
2019-04-18 19:00:00 13.6 6 Este 17 Este 0.6 1012 0.8 90
2019-04-18 18:00:00 13.8 8 Este 25 Este 0.2 1011.5 0.3 87
2019-04-18 17:00:00 14.3 13 Este 30 Este 0 1011.2 0.2 81
2019-04-18 16:00:00 16.4 11 Este 23 Este 0 1011.2 0.2 77
2019-04-18 15:00:00 15.8 7 Nordeste 18 Nordeste 0 1011.2 0.5 80
2019-04-18 14:00:00 16.7 10 Nordeste 18 Norte 0 1011 0.7 77
2019-04-18 13:00:00 16.9 5 Este 17 Este 0 1011 1.4 69
2019-04-18 12:00:00 15.6 6 Nordeste 13 Nordeste 0 1010.7 1.4 76
2019-04-18 11:00:00 14.5 3 Oeste 6 Sudoeste 0 1010.3 1.9 79
2019-04-18 10:00:00 12.7 3 Sur 5 Noroeste 0 1009.6 2.1 89
2019-04-18 09:00:00 11.1 3 Sur 4 Este 0 1009.3 2.2 96
2019-04-18 08:00:00 10 5 Sudeste 6 Sudeste 0 1008.4 1.1 97
2019-04-18 07:00:00 10.1 2 Este 4 Este 0 1007.5 0.3 96
2019-04-18 06:00:00 10.6 3 Sudeste 5 Este 0 1007.1 0.8 94
2019-04-18 05:00:00 10.9 4 Sudeste 6 Sudeste 0 1007.3 1.3 92
2019-04-18 04:00:00 11.2 3 Sur 7 Sur 0 1007.2 1.8 90
2019-04-18 03:00:00 12 3 Sudoeste 7 Noroeste 0 1006.3 1.2 85
2019-04-18 02:00:00 13.3 4 Sur 19 Sur 0 1006 1.3 77
2019-04-18 01:00:00 14.2 6 Sur 16 Sur 0 1005.4 1.5 64
2019-04-18 00:00:00 14.1 5 Sudoeste 13 Sudoeste 0 1005.1 2.4 65
2019-04-17 23:00:00 14.6 6 Sudoeste 17 Sudoeste 0 1004.7 2 65
2019-04-17 22:00:00 14.6 7 Sur 17 Sur 0 1003.9 2.3 68
2019-04-17 21:00:00 15.6 6 Sudoeste 18 Noroeste 0 1002.7 2.1 66
2019-04-17 20:00:00 16.3 11 Oeste 27 Oeste 0 1002.7 1.4 63
2019-04-17 19:00:00 19 10 Noroeste 25 Oeste 0 1001.6 0 59
2019-04-17 18:00:00 19.2 12 Noroeste 21 Noroeste 0 1000.6 -1 60
2019-04-17 17:00:00 18.1 8 Noroeste 23 Noroeste 0 1001.3 -0.5 66
2019-04-17 16:00:00 19.6 11 Norte 23 Noroeste 0 1001.6 -0.3 56
2019-04-17 15:00:00 25.9 5 Sur 14 Sudeste 0 1001.6 -0.8 34
2019-04-17 14:00:00 25.8 8 Sudeste 19 Sur 0 1001.8 -0.8 32
2019-04-17 13:00:00 25.5 9 Este 19 Este 0 1001.9 -0.6 34
2019-04-17 12:00:00 23.5 9 Este 16 Este 0 1002.4 -0.3 39
2019-04-17 11:00:00 17.8 3 Sudeste 11 Sudeste 0 1002.6 -0.1 77
2019-04-17 10:00:00 12.3 4 Sudeste 9 Sudeste 0 1002.5 -0.2 97
2019-04-17 09:00:00 10.3 5 Sudeste 10 Sudeste 0 1002.7 -0.7 98
2019-04-17 08:00:00 9.9 3 Oeste 9 Este 0 1002.7 -1 98
2019-04-17 07:00:00 9.6 4 Este 8 Sudeste 0 1002.7 -2.1 99
2019-04-17 06:00:00 9.5 4 Sudeste 8 Norte 0 1003.4 -2.5 98
2019-04-17 05:00:00 9.6 3 Este 7 Sur 0 1003.7 -3 98
2019-04-17 04:00:00 10 3 Sudeste 7 Este 0 1004.8 -2.7 97
2019-04-17 03:00:00 10.4 3 Sudeste 6 Sudeste 0 1005.9 -2.3 95
2019-04-17 02:00:00 11.2 3 Sudeste 6 Este 0 1006.7 -2.2 94
2019-04-17 01:00:00 11.8 3 Sudeste 7 Sudeste 0 1007.5 -1.9 91
2019-04-17 00:00:00 12.4 4 Sudeste 13 Este 0 1008.2 -1.5 88
2019-04-16 23:00:00 13 9 Este 16 Este 0 1008.9 -1.1 85
2019-04-16 22:00:00 13.3 7 Nordeste 14 Este 0 1009.4 -0.8 83
2019-04-16 21:00:00 13.8 5 Este 25 Nordeste 0 1009.7 -1.1 79
2019-04-16 20:00:00 14.9 13 Este 28 Este 0 1010 -1.3 73
2019-04-16 19:00:00 16.2 16 Este 32 Este 0 1010.2 -1.7 66
2019-04-16 18:00:00 16.6 15 Este 32 Este 0 1010.8 -1.7 62
2019-04-16 17:00:00 17.5 14 Este 34 Este 0 1011.3 -1.9 60
2019-04-16 16:00:00 17.2 13 Este 33 Este 0 1011.9 -1.8 59
2019-04-16 15:00:00 17.1 18 Este 35 Este 0 1012.5 -1.5 57
2019-04-16 14:00:00 17.9 17 Este 33 Este 0 1013.2 -1 56
2019-04-16 13:00:00 17.4 15 Este 29 Este 0 1013.7 -1.2 54
2019-04-16 12:00:00 16.9 12 Este 24 Este 0 1014 -1.3 59
2019-04-16 11:00:00 15.6 12 Este 22 Este 0 1014.2 -1.1 61
2019-04-16 10:00:00 10.5 3 Noroeste 5 Noroeste 0 1014.9 0 94
2019-04-16 09:00:00 7.1 3 Oeste 9 Sudeste 0 1015.3 0.6 100
2019-04-16 08:00:00 4.9 3 Nordeste 5 Sudeste 0 1015.3 0.7 100
2019-04-16 07:00:00 4.9 5 Sudeste 8 Sudeste 0 1014.9 0 99
2019-04-16 06:00:00 5.5 3 Sudeste 6 Sudeste 0 1014.7 -0.5 99
2019-04-16 05:00:00 6.2 3 Sur 6 Sudeste 0 1014.6 -0.7 99
2019-04-16 04:00:00 7.2 2 Sudeste 6 Sudeste 0 1014.9 -0.4 98
2019-04-16 03:00:00 8.1 4 Sudeste 9 Este 0 1015.2 0.2 98
2019-04-16 02:00:00 8.1 5 Este 7 Este 0 1015.3 0.9 97
2019-04-16 01:00:00 9 5 Sudeste 8 Este 0 1015.3 1.6 95
2019-04-16 00:00:00 10.4 3 Sur 13 Oeste 0 1015 2.5 91
2019-04-15 23:00:00 12.2 7 Oeste 19 Oeste 0 1014.4 3.3 86
2019-04-15 22:00:00 12.8 9 Noroeste 21 Noroeste 0 1013.7 3.5 85
2019-04-15 21:00:00 12.8 8 Oeste 22 Noroeste 0 1012.5 4 87
2019-04-15 20:00:00 13.3 12 Oeste 28 Noroeste 0.2 1011.1 3.7 84
2019-04-15 19:00:00 13.3 18 Noroeste 39 Noroeste 0 1010.2 4 84
2019-04-15 18:00:00 13.5 15 Noroeste 24 Noroeste 0.4 1008.5 2.5 91
2019-04-15 17:00:00 13.4 11 Noroeste 23 Noroeste 4.2 1007.4 2.6 92
2019-04-15 16:00:00 14.1 12 Norte 21 Norte 1.2 1006.2 1.4 90
2019-04-15 15:00:00 14 5 Nordeste 42 Norte 1.6 1006 1.6 91
2019-04-15 14:00:00 16.2 3 Sudeste 8 Este 1 1004.8 2.2 95
2019-04-15 13:00:00 15.6 5 Nordeste 11 Oeste 0.8 1004.8 2.3 95
2019-04-15 12:00:00 15.7 6 Oeste 31 Noroeste 2.2 1004.4 1.1 91
2019-04-15 11:00:00 16.5 3 Noroeste 9 Sur 0 1002.6 -0.9 84
2019-04-15 10:00:00 14.3 3 Noroeste 7 Sudeste 0 1002.5 -1.7 93
2019-04-15 09:00:00 13.1 2 Nordeste 7 Sudeste 0 1003.3 -2 95
2019-04-15 08:00:00 12.7 4 Sur 8 Este 0 1003.5 -2.6 95
2019-04-15 07:00:00 12.6 4 Este 7 Este 0 1004.2 -2.6 96
2019-04-15 06:00:00 12.5 4 Sudeste 8 Sudeste 0 1005.3 -2.5 96
2019-04-15 05:00:00 12.8 4 Sudeste 8 Sudeste 0 1006.1 -2.4 93
2019-04-15 04:00:00 13.3 3 Este 7 Sudeste 0 1006.8 -2.4 92
2019-04-15 03:00:00 13.8 3 Norte 5 Norte 0 1007.8 -1.9 89
2019-04-15 02:00:00 14.9 3 Este 11 Este 0 1008.5 -1.6 83
2019-04-15 01:00:00 16.7 10 Este 19 Sudeste 0 1009.2 -1 75
2019-04-15 00:00:00 16.9 5 Este 29 Este 0 1009.7 -0.4 75
2019-04-14 23:00:00 17.2 13 Este 27 Este 0 1010.1 0.1 72
2019-04-14 22:00:00 17.8 9 Este 15 Este 0 1010.2 -0.1 71
2019-04-14 21:00:00 18.9 7 Este 18 Este 0 1010.1 -0.5 67
2019-04-14 20:00:00 20.4 9 Este 21 Este 0 1010 -1.3 62
2019-04-14 19:00:00 21.7 9 Este 19 Este 0 1010.3 -1.8 58
2019-04-14 18:00:00 22.5 9 Nordeste 19 Norte 0 1010.6 -2.1 57
2019-04-14 17:00:00 22.9 8 Norte 19 Norte 0 1011.3 -1.7 56
2019-04-14 16:00:00 22.8 10 Nordeste 19 Nordeste 0 1012.1 -0.9 60
2019-04-14 15:00:00 21.7 8 Nordeste 19 Nordeste 0 1012.7 -0.1 59
2019-04-14 14:00:00 20.8 10 Nordeste 17 Nordeste 0 1013 0.6 56
2019-04-14 13:00:00 19.2 7 Norte 12 Norte 0 1013 0.7 61
2019-04-14 12:00:00 19 6 Norte 10 Norte 0 1012.8 0.2 63
2019-04-14 11:00:00 17.5 0 Calma 6 Sudeste 0 1012.4 0 68
2019-04-14 10:00:00 14.8 5 Sudeste 6 Sudeste 0 1012.3 0 82
2019-04-14 09:00:00 12.9 3 Sudeste 6 Este 0 1012.6 -0.2 91
2019-04-14 08:00:00 12.1 3 Sudeste 4 Sudeste 0 1012.4 -0.8 92
2019-04-14 07:00:00 11.8 4 Este 5 Este 0 1012.3 -1 93
2019-04-14 06:00:00 11.7 0 Calma 6 Sudeste 0 1012.8 -0.9 94
2019-04-14 05:00:00 11.8 3 Este 5 Sur 0 1013.2 -0.9 94
2019-04-14 04:00:00 12.7 3 Sudeste 6 Norte 0 1013.3 -0.9 92
2019-04-14 03:00:00 13 2 Noroeste 9 Sudeste 0 1013.7 -0.8 91
2019-04-14 02:00:00 13.2 0 Calma 5 Sudeste 0 1014.1 -0.4 90
2019-04-14 01:00:00 13.2 2 Este 3 Sudeste 0 1014.2 0.1 90
2019-04-14 00:00:00 13.7 2 Norte 6 Norte 0 1014.5 0.8 86
2019-04-13 23:00:00 14.1 0 Calma 6 Oeste 0 1014.5 1.1 82
2019-04-13 22:00:00 14.6 4 Oeste 8 Sur 0 1014.1 0.7 78
2019-04-13 21:00:00 15.5 4 Sudoeste 7 Sudoeste 0 1013.7 0.1 73
2019-04-13 20:00:00 16.9 3 Noroeste 12 Norte 0 1013.4 -0.1 68
2019-04-13 19:00:00 17.5 8 Norte 15 Norte 0 1013.4 -0.3 64
2019-04-13 18:00:00 17.5 10 Norte 20 Nordeste 0 1013.6 -0.3 58
2019-04-13 17:00:00 18.9 13 Nordeste 23 Norte 0 1013.5 -1 59
2019-04-13 16:00:00 19.6 16 Nordeste 25 Norte 0 1013.7 -0.9 62
2019-04-13 15:00:00 18.7 16 Norte 23 Norte 0 1013.9 -1.1 60
2019-04-13 14:00:00 17.8 14 Norte 22 Nordeste 0 1014.5 -0.7 65
2019-04-13 13:00:00 17.1 14 Norte 20 Nordeste 0 1014.6 -0.7 68
2019-04-13 12:00:00 16.3 6 Oeste 12 Oeste 0 1015 -0.5 72
2019-04-13 11:00:00 14.3 6 Noroeste 10 Oeste 0 1015.2 -0.4 79
2019-04-13 10:00:00 11.1 0 Calma 6 Nordeste 0 1015.3 0.1 95
2019-04-13 09:00:00 7.4 0 Calma 7 Sudeste 0 1015.5 0.2 100
2019-04-13 08:00:00 5.8 4 Sur 7 Sudeste 0 1015.6 0.2 99
2019-04-13 07:00:00 6 3 Sur 5 Sudeste 0 1015.2 -0.3 99
2019-04-13 06:00:00 6 2 Este 8 Sudeste 0 1015.3 -0.6 99
2019-04-13 05:00:00 5.7 2 Sudeste 7 Este 0 1015.4 -0.9 99
2019-04-13 04:00:00 5.7 7 Sudeste 8 Sudeste 0 1015.5 -1.1 99
2019-04-13 03:00:00 5.9 3 Sudeste 7 Sudeste 0 1015.9 -0.5 98
2019-04-13 02:00:00 6.1 5 Sudeste 7 Sudeste 0 1016.3 -0.2 97
2019-04-13 01:00:00 6.7 5 Sudeste 6 Sudeste 0 1016.6 0.3 95
2019-04-13 00:00:00 7.8 5 Sudeste 8 Este 0 1016.4 0.7 93
2019-04-12 23:00:00 9.6 3 Sur 16 Sudeste 0 1016.5 0.9 88
2019-04-12 22:00:00 11 8 Este 25 Este 0 1016.3 0.5 83
2019-04-12 21:00:00 12.3 14 Este 27 Este 0 1015.7 0 76
2019-04-12 20:00:00 14 13 Este 27 Este 0 1015.6 -0.1 70
2019-04-12 19:00:00 15.1 15 Este 28 Este 0 1015.8 -0.9 69
2019-04-12 18:00:00 16.3 12 Nordeste 27 Este 0 1015.7 -1.7 67
2019-04-12 17:00:00 16.4 14 Este 27 Este 0 1015.7 -2.2 65
2019-04-12 16:00:00 15.9 12 Nordeste 30 Nordeste 0 1016.7 -1.6 67
2019-04-12 15:00:00 15.8 13 Nordeste 30 Nordeste 0 1017.4 -1.1 70
2019-04-12 14:00:00 15.5 11 Nordeste 30 Norte 0 1017.9 -0.7 64
2019-04-12 13:00:00 15.1 12 Nordeste 26 Nordeste 0 1018.3 -0.2 65
2019-04-12 12:00:00 13.8 14 Norte 20 Norte 0 1018.5 0 77
2019-04-12 11:00:00 11.4 5 Noroeste 9 Noroeste 0 1018.6 -0.2 84
2019-04-12 10:00:00 8.2 0 Calma 7 Noroeste 0 1018.5 0.3 100
2019-04-12 09:00:00 4.7 3 Sudeste 6 Sudeste 0 1018.5 -0.1 100
2019-04-12 08:00:00 3 5 Sudeste 8 Sudeste 0 1018.8 0 100
2019-04-12 07:00:00 3.4 3 Sur 8 Este 0 1018.2 -0.8 99
2019-04-12 06:00:00 4.1 2 Sudeste 6 Sudeste 0 1018.6 -0.7 99
2019-04-12 05:00:00 5.1 0 Calma 5 Noroeste 0 1018.8 -0.8 99
2019-04-12 04:00:00 6.1 5 Sudeste 8 Sudeste 0 1019 -0.8 99
2019-04-12 03:00:00 5.9 2 Sudeste 6 Sudeste 0 1019.3 -0.6 99
2019-04-12 02:00:00 5.8 4 Sudeste 8 Este 0 1019.6 -0.4 99
2019-04-12 01:00:00 6.6 5 Sudeste 8 Sudeste 0 1019.8 -0.1 98
2019-04-12 00:00:00 7.6 6 Sudeste 8 Este 0 1019.9 0.4 97
2019-04-11 23:00:00 9.2 4 Sudeste 5 Sudeste 0 1020 0.4 95
2019-04-11 22:00:00 10.1 3 Este 4 Este 0 1019.9 0.4 94
2019-04-11 21:00:00 11.6 2 Este 9 Noroeste 0 1019.5 0.1 87
2019-04-11 20:00:00 12.2 6 Norte 14 Noroeste 0 1019.6 0.1 83
2019-04-11 19:00:00 12.3 6 Noroeste 14 Noroeste 0 1019.5 -0.1 86
2019-04-11 18:00:00 12.5 6 Oeste 14 Noroeste 0 1019.4 -0.4 83
2019-04-11 17:00:00 11.9 6 Oeste 22 Oeste 0.4 1019.5 -0.2 89
2019-04-11 16:00:00 12.5 10 Oeste 20 Noroeste 0 1019.6 -0.3 80
2019-04-11 15:00:00 12.2 7 Oeste 22 Noroeste 0 1019.8 0.1 83
2019-04-11 14:00:00 12 6 Sudoeste 14 Sudoeste 0 1019.7 0.3 82
2019-04-11 13:00:00 11.2 5 Sur 11 Sur 0.2 1019.9 0.9 87
2019-04-11 12:00:00 11.3 4 Sudoeste 10 Oeste 0.4 1019.7 0.9 83
2019-04-11 11:00:00 10.7 5 Oeste 13 Sudoeste 0 1019.4 0.8 82
2019-04-11 10:00:00 10 4 Sudoeste 11 Sur 0 1019 0.8 85
2019-04-11 09:00:00 9.3 4 Sudoeste 9 Sur 0 1018.8 0.3 91
2019-04-11 08:00:00 8.6 2 Noroeste 8 Sudoeste 0 1018.6 0.2 95
2019-04-11 07:00:00 8.4 5 Sudoeste 13 Sudoeste 0 1018.2 -0.1 96
2019-04-11 06:00:00 8.3 4 Sudoeste 6 Sudoeste 0 1018.5 0.2 98
2019-04-11 05:00:00 8.3 3 Sur 5 Oeste 0 1018.4 -0.1 99
2019-04-11 04:00:00 8.1 3 Norte 4 Nordeste 0 1018.3 -0.3 99
2019-04-11 03:00:00 8.1 3 Norte 5 Norte 0 1018.3 -0.2 99
2019-04-11 02:00:00 8.2 2 Norte 4 Norte 0 1018.5 0 99
2019-04-11 01:00:00 8.1 4 Este 6 Este 0 1018.6 0.8 97
2019-04-11 00:00:00 9.3 2 Este 8 Sur 0 1018.5 1.5 93
2019-04-10 23:00:00 9.9 6 Sur 16 Noroeste 1.8 1018.5 2 89
2019-04-10 22:00:00 11.9 6 Noroeste 15 Noroeste 0 1017.8 1.6 83
2019-04-10 21:00:00 12.1 6 Noroeste 14 Noroeste 0 1017 1.2 80
2019-04-10 20:00:00 12.6 8 Norte 18 Noroeste 0 1016.5 1 77
2019-04-10 19:00:00 13.9 10 Noroeste 19 Noroeste 0 1016.2 1.3 72
2019-04-10 18:00:00 14 11 Noroeste 23 Noroeste 0 1015.8 1.4 71
2019-04-10 17:00:00 13.8 13 Norte 24 Norte 0 1015.5 1.8 78
2019-04-10 16:00:00 13.7 13 Norte 24 Norte 0 1014.9 1.8 77
2019-04-10 15:00:00 13.2 16 Norte 27 Norte 0 1014.4 1.9 77
2019-04-10 14:00:00 13.5 15 Noroeste 28 Noroeste 0 1013.7 2.2 79
2019-04-10 13:00:00 13.4 16 Noroeste 23 Noroeste 0 1013.1 2.7 82
2019-04-10 12:00:00 12.6 12 Noroeste 18 Noroeste 0 1012.5 2.8 84
2019-04-10 11:00:00 11.7 10 Oeste 28 Norte 0.6 1011.5 2.1 90
2019-04-10 10:00:00 9.9 11 Sudoeste 30 Sur 2.4 1010.4 1.5 95
2019-04-10 09:00:00 9.3 12 Sur 30 Sur 1.8 1009.7 1.1 89
2019-04-10 08:00:00 9.5 12 Sudoeste 29 Sudoeste 0 1009.4 0.8 83
2019-04-10 07:00:00 9.5 12 Sudoeste 30 Sur 1 1008.9 0.1 81
2019-04-10 06:00:00 9.7 13 Sudoeste 27 Sudoeste 1 1008.6 -0.7 80
2019-04-10 05:00:00 9.4 10 Sur 29 Sur 0.8 1008.6 -0.5 82
2019-04-10 04:00:00 9.5 5 Sur 30 Oeste 0.8 1008.8 -0.2 82
2019-04-10 03:00:00 11.1 12 Oeste 21 Oeste 0 1009.3 0.6 66
2019-04-10 02:00:00 10.6 7 Sudoeste 17 Sur 0 1009.1 0.7 70
2019-04-10 01:00:00 9.8 6 Sudoeste 10 Sur 0 1009 0.8 75
2019-04-10 00:00:00 10.5 5 Sudoeste 13 Sudoeste 0 1008.7 1.4 76
2019-04-09 23:00:00 10.2 4 Sudeste 13 Oeste 0.2 1008.4 1.6 92
2019-04-09 22:00:00 12.1 12 Oeste 35 Oeste 0.8 1008.2 1.9 72
2019-04-09 21:00:00 12.9 4 Sudeste 11 Este 0 1007.3 1.3 72
2019-04-09 20:00:00 13.5 5 Nordeste 17 Norte 0 1006.8 0.8 69
2019-04-09 19:00:00 14.6 7 Nordeste 15 Nordeste 0 1006.3 0.3 55
2019-04-09 18:00:00 16.3 6 Nordeste 15 Este 0 1006 -0.5 51
2019-04-09 17:00:00 15.7 13 Nordeste 22 Norte 0 1006 -0.8 55
2019-04-09 16:00:00 16.7 8 Este 20 Este 0 1006 -1.1 49
2019-04-09 15:00:00 16.8 10 Nordeste 21 Norte 0 1006.5 -0.7 60
2019-04-09 14:00:00 15.6 9 Sudoeste 24 Oeste 0 1006.8 -0.4 49
2019-04-09 13:00:00 14.3 8 Oeste 18 Oeste 0 1007.1 0.7 58
2019-04-09 12:00:00 13.4 4 Oeste 10 Sudoeste 0 1007.2 0.8 71
2019-04-09 11:00:00 11.5 5 Sudoeste 11 Oeste 0 1007.2 1.5 83
2019-04-09 10:00:00 9.6 3 Sudoeste 8 Oeste 0 1006.4 1 92
2019-04-09 09:00:00 8.6 3 Sur 8 Sudeste 0.4 1006.4 0.9 95
2019-04-09 08:00:00 8.3 3 Este 12 Oeste 0 1005.7 0 92
2019-04-09 07:00:00 8 3 Sudoeste 8 Sudeste 0 1005.4 -0.6 94
2019-04-09 06:00:00 7.5 5 Sudeste 6 Sudeste 0 1005.5 -1 95
2019-04-09 05:00:00 7.4 0 Calma 8 Sudoeste 0 1005.7 -0.5 94
2019-04-09 04:00:00 7.9 3 Sudeste 11 Este 0 1006 -0.7 93
2019-04-09 03:00:00 8.1 4 Sudoeste 9 Sur 0 1006.5 -0.5 92
2019-04-09 02:00:00 7.2 3 Sudoeste 7 Sudeste 0 1006.2 -1.1 95
2019-04-09 01:00:00 7.7 5 Sudeste 9 Este 0 1006.7 -0.6 91
2019-04-09 00:00:00 9.3 4 Sudeste 18 Este 0 1007 -0.1 81
2019-04-08 23:00:00 10.9 7 Sudeste 18 Este 0 1007.3 -0.7 73
2019-04-08 22:00:00 11.2 14 Sudeste 29 Sudeste 0 1007.3 0 80
2019-04-08 21:00:00 11.8 12 Este 27 Este 0.4 1007.1 0.3 83
2019-04-08 20:00:00 12.9 5 Nordeste 25 Nordeste 0 1008 1 77
2019-04-08 19:00:00 13.9 12 Nordeste 26 Norte 0 1007.3 -0.2 71
2019-04-08 18:00:00 15.4 13 Nordeste 28 Nordeste 0 1006.8 -1.2 60
2019-04-08 17:00:00 16.6 11 Nordeste 22 Norte 0 1007 -1 54
2019-04-08 16:00:00 16.4 14 Nordeste 23 Norte 0 1007.5 -0.5 56
2019-04-08 15:00:00 16.2 10 Nordeste 24 Norte 0 1008 0 61
2019-04-08 14:00:00 15.3 15 Norte 25 Norte 0 1008 0.2 64
2019-04-08 13:00:00 15.9 14 Norte 23 Norte 0 1008 0.3 54
2019-04-08 12:00:00 16.7 4 Sudoeste 15 Oeste 0 1008 0.6 54
2019-04-08 11:00:00 14.3 5 Oeste 10 Oeste 0 1007.8 0.9 64
2019-04-08 10:00:00 11.6 3 Nordeste 5 Nordeste 0 1007.7 1.4 94
2019-04-08 09:00:00 10.2 4 Sudeste 7 Sudeste 0 1007.4 1.3 99
2019-04-08 08:00:00 9.8 3 Sur 5 Sudeste 0 1006.9 1.2 96
2019-04-08 07:00:00 10.1 3 Sudeste 12 Sur 0 1006.3 2 95
2019-04-08 06:00:00 10.6 4 Sur 21 Oeste 0.2 1006.1 2.4 93
2019-04-08 05:00:00 11 9 Oeste 25 Oeste 0 1005.7 2 91
2019-04-08 04:00:00 8.7 4 Sudeste 11 Sudeste 0 1004.3 0.6 98
2019-04-08 03:00:00 9 6 Noroeste 9 Sudeste 0 1003.7 -0.4 98
2019-04-08 02:00:00 9.2 4 Sudeste 7 Sudeste 0.4 1003.7 -0.3 97
2019-04-08 01:00:00 9.2 2 Sudeste 6 Sur 0 1003.7 -0.3 95
2019-04-08 00:00:00 9.5 2 Oeste 12 Este 0 1004.1 -1.6 91
2019-04-07 23:00:00 9.8 5 Nordeste 13 Este 0 1004 -1.7 88
2019-04-07 22:00:00 9.8 9 Este 23 Sudeste 0.2 1004 -1.3 86
2019-04-07 21:00:00 10.2 5 Este 14 Este 1.4 1005.7 0.4 88
2019-04-07 20:00:00 12.1 10 Este 19 Este 0 1005.7 0.5 67
2019-04-07 19:00:00 13 8 Este 21 Este 0 1005.3 -0.2 58
2019-04-07 18:00:00 13.7 11 Nordeste 23 Nordeste 0 1005.3 -0.3 59
2019-04-07 17:00:00 14.3 11 Nordeste 22 Nordeste 0 1005.2 -0.4 57
2019-04-07 16:00:00 14.2 15 Norte 24 Norte 0 1005.5 -0.4 58
2019-04-07 15:00:00 14.1 18 Norte 27 Noroeste 0 1005.6 -0.4 57
2019-04-07 14:00:00 14.8 16 Norte 25 Nordeste 0 1005.6 -0.3 56
2019-04-07 13:00:00 15 9 Oeste 22 Oeste 0 1005.9 0.1 45
2019-04-07 12:00:00 13.9 11 Sudoeste 24 Oeste 0 1006 0.6 48
2019-04-07 11:00:00 12.7 8 Sudoeste 21 Sur 0 1005.9 1.2 50
2019-04-07 10:00:00 10.8 7 Sudoeste 17 Sudoeste 0 1005.8 1.9 57
2019-04-07 09:00:00 8.9 5 Sudoeste 16 Sudoeste 0 1005.4 2.5 63
2019-04-07 08:00:00 8.3 9 Sudoeste 16 Sudoeste 0 1004.7 2.2 69
2019-04-07 07:00:00 7.9 8 Sudoeste 15 Sur 0 1003.9 1.5 77
2019-04-07 06:00:00 7.8 8 Sudoeste 15 Sudoeste 0 1002.9 0.9 82
2019-04-07 05:00:00 7.3 6 Sudoeste 13 Sur 0.6 1002.5 1.3 89
2019-04-07 04:00:00 7.1 4 Sudoeste 12 Oeste 1.6 1002.4 1.1 94
2019-04-07 03:00:00 7.2 6 Sudoeste 10 Sudoeste 1.8 1002 1.4 91
2019-04-07 02:00:00 7.2 6 Sur 14 Sur 2.4 1001.2 0.3 92
2019-04-07 01:00:00 7.4 3 Oeste 12 Noroeste 2.8 1001.3 0.8 92
2019-04-07 00:00:00 7.3 6 Sudoeste 19 Sudoeste 0.8 1000.6 1.3 89
2019-04-06 23:00:00 7.3 9 Sudoeste 19 Sudoeste 2.4 1000.9 2 91
2019-04-06 22:00:00 7.2 9 Sudoeste 26 Sudoeste 1.4 1000.5 3.1 88
2019-04-06 21:00:00 7.6 13 Sudoeste 27 Sudoeste 0.8 999.3 2.4 89
2019-04-06 20:00:00 7.8 10 Sudoeste 30 Oeste 1.4 998.9 2.6 87
2019-04-06 19:00:00 9.7 10 Oeste 27 Sudoeste 0.2 997.4 1.2 84
2019-04-06 18:00:00 8.3 6 Sudeste 28 Noroeste 3.6 996.9 1.8 92
2019-04-06 17:00:00 10.9 4 Noroeste 10 Noroeste 0.4 996.3 1.9 75
2019-04-06 16:00:00 8.7 6 Sudeste 34 Oeste 2.8 996.2 1.9 89
2019-04-06 15:00:00 12.6 10 Norte 27 Norte 0 995.1 1.5 61
2019-04-06 14:00:00 12.6 10 Norte 23 Noroeste 0 994.4 1.3 59
2019-04-06 13:00:00 12.5 15 Noroeste 27 Noroeste 0 994.3 1.2 63
2019-04-06 12:00:00 12.9 7 Noroeste 12 Oeste 0 993.6 -- 64
2019-04-06 11:00:00 12.3 5 Noroeste 8 Noroeste 0 993.1 0 66
2019-04-06 10:00:00 7.9 3 Noroeste 6 Oeste 0 993.1 -0.3 86
2019-04-06 09:00:00 -- -- -- -- -- -- -- -- --
2019-04-06 08:00:00 4.3 4 Sudeste 6 Este 0 993.1 -1.2 96
2019-04-06 07:00:00 4.8 4 Sudeste 7 Sudeste 0 993.4 -1 96
2019-04-06 06:00:00 4.5 3 Sudeste 9 Sudeste 0 993.7 -1.3 96
2019-04-06 05:00:00 3.7 3 Nordeste 9 Sudeste 0 994.3 -1.2 98
2019-04-06 04:00:00 3.4 3 Este 6 Sudeste 0 994.4 -1.3 96
2019-04-06 03:00:00 3.5 6 Sudeste 8 Sudeste 0 995 -1 97
2019-04-06 02:00:00 3.8 5 Sudeste 8 Sudeste 0 995.5 -0.8 95
2019-04-06 01:00:00 4.7 4 Sudeste 8 Sudeste 0 995.7 0 93
2019-04-06 00:00:00 5.9 4 Sudeste 8 Sudeste 0 996 0.9 90
2019-04-05 23:00:00 6.4 6 Sudeste 10 Sudeste 0 996.3 1.6 89
2019-04-05 22:00:00 7.5 5 Sudeste 10 Sudeste 0 995.7 1.3 84
2019-04-05 21:00:00 9.8 3 Oeste 12 Oeste 0 995.1 1.5 70
2019-04-05 20:00:00 10.7 8 Oeste -- -- -- 994.7 2.2 65
2019-04-05 19:00:00 12 7 Norte 23 Norte 0 994.4 1.8 62
2019-04-05 18:00:00 12.9 14 Norte 26 Norte 0 993.6 1.2 58
2019-04-05 17:00:00 14.2 6 Este 17 Este 0 992.5 -0.2 58
2019-04-05 16:00:00 14 10 Este 26 Nordeste 0 992.6 -0.4 59
2019-04-05 15:00:00 14.5 11 Nordeste -- -- -- 992.4 -1.1 55
2019-04-05 14:00:00 14.2 8 Este -- -- -- 992.7 -0.5 56
2019-04-05 13:00:00 14.2 10 Nordeste 21 Nordeste 0 993 -0.1 58
2019-04-05 12:00:00 12.8 4 Nordeste 13 Sudeste 0 993.5 1 62
2019-04-05 11:00:00 11.5 3 Oeste 6 Oeste 0 993.2 0.8 68
2019-04-05 10:00:00 9.4 4 Noroeste 7 Noroeste 0 993.1 0.9 83
2019-04-05 09:00:00 7.4 4 Sudeste 6 Sudeste 0 992.5 0.3 97
2019-04-05 08:00:00 6.7 2 Sur 8 Este 0 992.4 0.2 97
2019-04-05 07:00:00 7.3 4 Sudeste 7 Sudeste 0 992.2 -0.1 98
2019-04-05 06:00:00 7.8 0 Calma 8 Este 0 992.2 -0.2 97
2019-04-05 05:00:00 8.1 4 Sur 10 Oeste 0 992.2 -0.5 97
2019-04-05 04:00:00 8.1 3 Sudoeste 6 Sudoeste 0 992.3 -0.4 98
2019-04-05 03:00:00 8.3 3 Sur 8 Sudoeste 0.4 992.4 -0.1 97
2019-04-05 02:00:00 8.6 3 Sudeste 10 Sudeste 0.6 992.7 -0.2 96
2019-04-05 01:00:00 8.7 4 Nordeste 9 Norte 0.2 992.7 -0.8 94
2019-04-05 00:00:00 8.6 3 Sur 9 Sudeste 0 992.5 -0.7 92
2019-04-04 23:00:00 9 6 Este 10 Sudeste 0.4 992.9 -0.6 93
2019-04-04 22:00:00 10 2 Sur 9 Sudeste 0.2 993.5 -0.5 87
2019-04-04 21:00:00 11.1 4 Sudeste 11 Nordeste 0 993.2 -1.3 75
2019-04-04 20:00:00 12.1 2 Nordeste 19 Oeste 0 993.5 -1.3 68
2019-04-04 19:00:00 13 5 Sudoeste 14 Sudoeste 0 994 -1.1 55
2019-04-04 18:00:00 13.4 8 Sudoeste 35 Sudoeste 0 994.5 -1.4 49
2019-04-04 17:00:00 14.1 10 Sudoeste 39 Sur 0 994.8 -2.1 42
2019-04-04 16:00:00 14.6 10 Sudoeste 25 Sur 0 995.1 -3 36
2019-04-04 15:00:00 14.7 4 Oeste 18 Sudoeste 0 995.9 -3.4 41
2019-04-04 14:00:00 14.1 13 Oeste 28 Oeste 0 996.9 -3.2 40
2019-04-04 13:00:00 13.5 8 Sudoeste 25 Oeste 0 998.1 -2.7 47
2019-04-04 12:00:00 12.1 11 Oeste 28 Sur 0 999.3 -1.8 53
2019-04-04 11:00:00 10.5 13 Sudoeste 26 Sur 0 1000.1 -1.3 56
2019-04-04 10:00:00 9.1 10 Sudoeste 22 Sudoeste 0 1000.8 -0.7 60
2019-04-04 09:00:00 6.9 9 Sudoeste 20 Sudoeste 0 1001.1 -0.9 68
2019-04-04 08:00:00 6.2 7 Oeste 18 Oeste 0 1001.4 -1.2 75
2019-04-04 07:00:00 6.3 8 Sudoeste 23 Sudoeste 0 1001.5 -1.7 75
2019-04-04 06:00:00 5.4 6 Sudoeste 29 Sur 0 1002 -2 81
2019-04-04 05:00:00 5.5 10 Sudoeste 27 Sudoeste 0 1002.6 -2.1 83
2019-04-04 04:00:00 5.4 9 Sudoeste 32 Sur 0.2 1003.2 -2.2 84
2019-04-04 03:00:00 5 16 Sudoeste 31 Sur 0 1004 -1.8 86
2019-04-04 02:00:00 4.9 13 Sur 24 Sudoeste 0.8 1004.7 -1.2 91
2019-04-04 01:00:00 5.5 9 Sudoeste 28 Oeste 0.8 1005.4 -0.8 89
2019-04-04 00:00:00 6.4 10 Sudoeste 23 Sur 0 1005.8 0 82
2019-04-03 23:00:00 5.8 8 Sudoeste 19 Sudoeste 0.8 1005.9 0.2 86
2019-04-03 22:00:00 6.7 6 Noroeste 36 Sur 0.2 1006.2 0.1 80
2019-04-03 21:00:00 6.2 10 Sudoeste 35 Sudoeste 0.2 1005.8 -0.9 80
2019-04-03 20:00:00 7.8 7 Sudoeste 20 Oeste 0 1005.7 -1.1 79
2019-04-03 19:00:00 8.7 8 Oeste 26 Oeste 1 1006.1 -0.8 77
2019-04-03 18:00:00 8.6 12 Oeste 33 Oeste 0.6 1006.7 -0.5 70
2019-04-03 17:00:00 8.8 23 Noroeste 44 Noroeste 0 1006.8 -1 63
2019-04-03 16:00:00 8.9 25 Noroeste 57 Norte 0.2 1006.9 -1 70
2019-04-03 15:00:00 10.8 14 Oeste 45 Oeste 0 1007.2 -0.7 69
2019-04-03 14:00:00 9 21 Noroeste 43 Noroeste 0 1007.8 -0.6 67
2019-04-03 13:00:00 7.6 7 Sudoeste 34 Noroeste 3.8 1007.9 -0.9 89
2019-04-03 12:00:00 8.5 12 Sudoeste 44 Oeste 0.2 1007.9 -0.7 78
2019-04-03 11:00:00 8.3 11 Oeste 28 Oeste 0.4 1008.4 -0.4 85
2019-04-03 10:00:00 7 9 Oeste 25 Oeste 2 1008.8 -0.3 91
2019-04-03 09:00:00 7 5 Sudoeste 19 Sur 0.2 1008.6 -0.7 88
2019-04-03 08:00:00 6.7 6 Sudoeste 19 Oeste 0.8 1008.8 -1.3 92
2019-04-03 07:00:00 7 13 Oeste 26 Oeste 2.8 1009.1 -1.8 91
2019-04-03 06:00:00 7.3 7 Sudoeste 25 Sur 0.8 1009.3 -2.3 89
2019-04-03 05:00:00 7.7 8 Sudoeste 21 Sudoeste 0.6 1010.1 -1.9 90
2019-04-03 04:00:00 8.3 7 Sudoeste 17 Oeste 0.8 1010.9 -1.9 89
2019-04-03 03:00:00 8.7 9 Sudoeste 27 Sudoeste 0.2 1011.6 -1.4 84
2019-04-03 02:00:00 9.4 6 Sudoeste 18 Sur 0 1012 -1.5 81
2019-04-03 01:00:00 9.4 6 Sudoeste 16 Sudoeste 0.2 1012.8 -0.6 87
2019-04-03 00:00:00 9.7 6 Sudoeste 17 Sudoeste 0 1013 -0.3 86
2019-04-02 23:00:00 10.1 4 Sudoeste 25 Noroeste 0 1013.5 0.1 86
2019-04-02 22:00:00 10.8 5 Sudoeste 17 Oeste 0 1013.4 -0.1 79
2019-04-02 21:00:00 11 9 Oeste 28 Noroeste 0 1013.3 -0.3 77
2019-04-02 20:00:00 11.6 11 Noroeste 24 Noroeste 0 1013.4 -0.2 77
2019-04-02 19:00:00 12 12 Noroeste 29 Noroeste 0 1013.5 0 70
2019-04-02 18:00:00 12.3 13 Noroeste 31 Noroeste 0 1013.6 -0.5 75
2019-04-02 17:00:00 12.9 15 Noroeste 31 Noroeste 0 1013.6 -0.9 76
2019-04-02 16:00:00 13.9 16 Noroeste 31 Noroeste 0 1013.5 -1.3 67
2019-04-02 15:00:00 14.7 17 Noroeste 28 Noroeste 0 1014.1 -1.3 65
2019-04-02 14:00:00 14 9 Oeste 17 Sudoeste 0 1014.5 -0.8 67
2019-04-02 13:00:00 13.5 8 Sudoeste 17 Oeste 0 1014.8 -0.3 70
2019-04-02 12:00:00 12.1 5 Sudoeste 13 Sur 0 1015.4 0.6 79
2019-04-02 11:00:00 11.9 5 Sudoeste 14 Sudoeste 0 1015.3 0.9 80
2019-04-02 10:00:00 11.4 4 Sudoeste 12 Sudoeste 0 1015.1 1.2 83
2019-04-02 09:00:00 11 5 Sudoeste 13 Sur 0 1014.8 1.2 88
2019-04-02 08:00:00 11 5 Oeste 11 Sudoeste 0 1014.4 0.9 88
2019-04-02 07:00:00 10.6 3 Sudoeste 10 Noroeste 0 1013.9 0.1 92
2019-04-02 06:00:00 10.4 3 Oeste 9 Sur 0 1013.6 0 95
2019-04-02 05:00:00 10 5 Sur 9 Sudoeste 0 1013.5 -0.5 97
2019-04-02 04:00:00 9.4 3 Sur 8 Oeste 0 1013.8 0 99
2019-04-02 03:00:00 8.2 4 Sur 8 Este 0 1013.6 0.1 99
2019-04-02 02:00:00 7.7 3 Noroeste 6 Sudeste 0 1014 0.7 98
2019-04-02 01:00:00 7.7 4 Sudeste 5 Sudeste 0 1013.8 1 96
2019-04-02 00:00:00 8.6 4 Sudeste 6 Sudeste 0 1013.5 1.5 95
2019-04-01 23:00:00 9.7 5 Sudeste 6 Sudeste 0 1013.3 1.8 95
2019-04-01 22:00:00 11.2 4 Sudeste 5 Sudeste 0 1012.8 1.5 92
2019-04-01 21:00:00 13 4 Este 13 Nordeste 0 1012 0.5 88
2019-04-01 20:00:00 14.5 9 Norte 15 Norte 0 1011.5 0.2 81
2019-04-01 19:00:00 15.9 8 Nordeste 19 Nordeste 0 1011.3 0.2 75
2019-04-01 18:00:00 15.9 13 Norte 21 Nordeste 0 1011.5 -0.2 75
2019-04-01 17:00:00 15.9 12 Norte 23 Nordeste 0 1011.3 -0.6 72
2019-04-01 16:00:00 17.7 9 Norte 19 Nordeste 0 1011.1 -0.8 50
2019-04-01 15:00:00 16.9 13 Norte 19 Norte 0 1011.7 -0.2 62
2019-04-01 14:00:00 16.3 13 Norte 23 Nordeste 0 1011.9 0.1 71
2019-04-01 13:00:00 17 7 Norte 14 Norte 0 1011.9 0.4 59
2019-04-01 12:00:00 16 4 Oeste 8 Sudoeste 0 1011.9 0.6 56
2019-04-01 11:00:00 13.2 2 Norte 4 Noroeste 0 1011.8 1 70
2019-04-01 10:00:00 8.6 2 Norte 4 Este 0 1011.5 1 94
2019-04-01 09:00:00 4.3 4 Sudeste 6 Este 0 1011.3 0.9 99
2019-04-01 08:00:00 3.6 4 Este 8 Sudeste 0 1010.8 0.3 97
2019-04-01 07:00:00 4.1 6 Sudeste 9 Sudeste 0 1010.5 -0.2 97
2019-04-01 06:00:00 5.2 4 Sudeste 8 Sudeste 0 1010.4 -0.6 96
2019-04-01 05:00:00 6 4 Sudeste 7 Sudeste 0 1010.5 -0.4 94
2019-04-01 04:00:00 7.9 4 Noroeste 7 Sur 0 1010.7 -0.3 89
2019-04-01 03:00:00 9.9 5 Sudeste 14 Este 0 1011 0 95
2019-04-01 02:00:00 6.9 3 Sudeste 5 Sudeste 0 1010.9 -0.1 93
2019-04-01 01:00:00 8.2 0 Calma 5 Sudeste 0 1011 0.4 89
2019-04-01 00:00:00 10.9 3 Norte 12 Este 0 1011 1.1 80
2019-03-31 23:00:00 13.1 9 Este 18 Nordeste 0 1011 1.3 72
2019-03-31 22:00:00 13.2 7 Este 17 Este 0 1010.6 1 70
2019-03-31 21:00:00 14.1 4 Nordeste 15 Nordeste 0 1009.9 0.3 71
2019-03-31 20:00:00 15.9 7 Nordeste 17 Nordeste 0 1009.7 -0.1 68
2019-03-31 19:00:00 16.4 11 Nordeste 23 Nordeste 0 1009.6 -0.4 74
2019-03-31 18:00:00 17 13 Nordeste 25 Nordeste 0 1009.6 -0.9 72
2019-03-31 17:00:00 17 12 Nordeste 26 Nordeste 0 1009.8 -1.3 68
2019-03-31 16:00:00 16.9 18 Nordeste 28 Norte 0 1010 -1.5 75
2019-03-31 15:00:00 16.6 14 Nordeste 27 Nordeste 0 1010.5 -1.4 73
2019-03-31 14:00:00 16.7 12 Nordeste 22 Norte 0 1011.1 -0.8 74
2019-03-31 13:00:00 16.2 13 Norte 19 Norte 0 1011.5 -0.4 79
2019-03-31 12:00:00 15.4 4 Oeste 7 Norte 0 1011.9 0.3 74
2019-03-31 11:00:00 13.4 4 Este 7 Este 0 1011.9 0.6 77
2019-03-31 10:00:00 9.3 3 Norte 4 Nordeste 0 1011.9 0.6 99
2019-03-31 09:00:00 7.5 3 Este 6 Sudeste 0 1011.6 0.1 99
2019-03-31 08:00:00 6.9 4 Sudeste 6 Este 0 1011.3 -0.9 98
2019-03-31 07:00:00 7.2 0 Calma 6 Sudeste 0 1011.3 -1.5 98
2019-03-31 06:00:00 7.9 4 Sudeste 8 Sudeste 0 1011.5 -1.8 97
2019-03-31 05:00:00 8.7 2 Sur 6 Sudeste 0 1012.2 -1.3 97
2019-03-31 03:00:00 10 4 Sur 6 Sudeste 0 1013.3 -0.6 95
2019-03-31 01:00:00 10.8 3 Nordeste 7 Este 0 1013.5 -0.5 95
2019-03-31 00:00:00 11.3 4 Sudeste 6 Sudeste 0 1013.8 -0.2 94
2019-03-30 23:00:00 12 0 Calma 5 Sudeste 0 1013.9 0.2 93
2019-03-30 22:00:00 12.3 3 Sudoeste 8 Sur 0 1014 0.4 93
2019-03-30 21:00:00 13.2 0 Calma 6 Sur 0 1014 0.4 88
2019-03-30 20:00:00 14.3 3 Norte 8 Oeste 0 1013.7 -0.2 85
2019-03-30 19:00:00 15.4 6 Oeste 13 Noroeste 0 1013.6 -0.3 79
2019-03-30 18:00:00 16.1 9 Norte 13 Norte 0 1013.6 -0.5 79
2019-03-30 17:00:00 14.5 11 Norte 16 Norte 0 1013.9 -0.5 84
2019-03-30 16:00:00 14.6 11 Norte 18 Norte 0 1013.9 -0.9 84
2019-03-30 15:00:00 15.4 10 Norte 23 Nordeste 0 1014.1 -1 77
2019-03-30 14:00:00 17 11 Norte 18 Nordeste 0 1014.4 -0.9 73
2019-03-30 13:00:00 16.8 14 Norte 18 Norte 0 1014.8 -0.6 75
2019-03-30 12:00:00 15.8 9 Norte 15 Noroeste 0 1015.1 -0.1 73
2019-03-30 11:00:00 13.9 4 Noroeste 7 Norte 0 1015.3 0.1 80
2019-03-30 10:00:00 10.4 3 Oeste 6 Oeste 0 1015.4 0 99
2019-03-30 09:00:00 8.5 3 Noroeste 6 Oeste 0 1015.2 -0.3 100
2019-03-30 08:00:00 7.1 2 Sur 6 Sur 0 1015.2 -0.3 100
2019-03-30 07:00:00 7.8 0 Calma 6 Sur 0 1015.4 -0.4 100
2019-03-30 06:00:00 8 3 Sur 6 Sur 0 1015.5 -0.2 100
2019-03-30 05:00:00 8 4 Sudeste 6 Sudeste 0 1015.5 -0.4 100
2019-03-30 04:00:00 7.3 5 Sudeste 9 Este 0 1015.8 -0.4 99
2019-03-30 03:00:00 6.4 2 Este 5 Sudeste 0 1015.7 -0.7 97
2019-03-30 02:00:00 7.1 5 Sudeste 7 Sudeste 0 1015.9 -0.8 96
2019-03-30 01:00:00 8.2 6 Sudeste 9 Este 0 1016.2 -0.7 95
2019-03-30 00:00:00 9.2 5 Sudeste 7 Sudeste 0 1016.4 -0.4 93
2019-03-29 23:00:00 9.5 3 Sudeste 5 Sudeste 0 1016.7 0 93
2019-03-29 22:00:00 10 4 Sudeste 12 Este 0 1016.9 0.2 90
2019-03-29 21:00:00 11.6 8 Este 21 Este 0 1016.8 0.3 85
2019-03-29 20:00:00 12.5 10 Nordeste 19 Este 0 1016.7 -0.1 82
2019-03-29 19:00:00 14.1 7 Nordeste 20 Nordeste 0 1016.7 -0.6 77
2019-03-29 18:00:00 15 8 Nordeste 21 Nordeste 0 1016.5 -1.4 74
2019-03-29 17:00:00 15.3 10 Nordeste 26 Norte 0 1016.8 -1.7 71
2019-03-29 16:00:00 15 15 Nordeste 28 Nordeste 0 1017.3 -1.9 73
2019-03-29 15:00:00 15.4 13 Nordeste 33 Nordeste 0 1017.9 -1.9 72
2019-03-29 14:00:00 14.8 14 Nordeste 27 Nordeste 0 1018.5 -1.9 72
2019-03-29 13:00:00 15.1 15 Nordeste 28 Norte 0 1019.2 -1.5 73
2019-03-29 12:00:00 13.8 18 Norte 26 Nordeste 0 1019.8 -1.2 80
2019-03-29 11:00:00 13.3 11 Norte 16 Norte 0 1020.4 -0.9 79
2019-03-29 10:00:00 11.4 5 Noroeste 7 Noroeste 0 1020.7 -0.8 82
2019-03-29 09:00:00 7.3 3 Noroeste 5 Sudeste 0 1021 -0.6 97
2019-03-29 08:00:00 3.3 3 Sudeste 7 Sudeste 0 1021.3 -0.6 99
2019-03-29 07:00:00 2.7 3 Sudeste 7 Sudeste 0 1021.5 -0.8 98
2019-03-29 06:00:00 3 3 Sudeste 8 Este 0 1021.6 -1.4 97
2019-03-29 05:00:00 3.6 5 Sudeste 6 Este 0 1021.9 -1.5 96
2019-03-29 04:00:00 4.5 3 Sudeste 7 Sudeste 0 1022.3 -1.6 96
2019-03-29 03:00:00 5.5 2 Sudoeste 7 Nordeste 0 1023 -1.2 93
2019-03-29 02:00:00 7.1 0 Calma 8 Sudeste 0 1023.4 -1.1 91
2019-03-29 01:00:00 9.6 6 Este 14 Sudeste 0 1023.9 -0.8 87
2019-03-29 00:00:00 10 6 Este 14 Este 0 1024.2 -0.4 86
2019-03-28 23:00:00 9.3 2 Sudeste 11 Este 0 1024.5 0.1 88
2019-03-28 22:00:00 10.2 3 Este 10 Este 0 1024.7 0.5 83
2019-03-28 21:00:00 10.7 3 Este 24 Este 0 1024.6 0.6 82
2019-03-28 20:00:00 11.3 13 Este 32 Nordeste 0 1024.4 0.1 80
2019-03-28 19:00:00 12.7 9 Este 37 Este 0 1024.2 -0.6 73
2019-03-28 18:00:00 13.8 19 Este 37 Este 0 1024 -1.5 66
2019-03-28 17:00:00 14.7 15 Este 31 Este 0 1024.3 -2 63
2019-03-28 16:00:00 15.1 14 Nordeste 33 Nordeste 0 1024.8 -1.9 63
2019-03-28 15:00:00 15.3 15 Este 32 Nordeste 0 1025.5 -1.7 62
2019-03-28 14:00:00 15.6 19 Nordeste 34 Nordeste 0 1026.3 -1.4 65
2019-03-28 13:00:00 15.9 14 Nordeste 31 Este 0 1026.7 -1.1 56
2019-03-28 12:00:00 15.2 11 Nordeste 27 Este 0 1027.2 -0.7 63
2019-03-28 11:00:00 14.7 10 Este 21 Este 0 1027.7 0 63
2019-03-28 10:00:00 12.3 9 Nordeste 19 Este 0 1027.8 0.5 76
2019-03-28 09:00:00 7.1 0 Calma 5 Sudeste 0 1027.9 0.6 94
2019-03-28 08:00:00 2.9 4 Este 7 Sudeste 0 1027.7 0.5 98
2019-03-28 07:00:00 2.6 3 Sudeste 6 Sudeste 0 1027.3 0 96
2019-03-28 06:00:00 3.2 2 Este 6 Sudeste 0 1027.3 -0.2 96
2019-03-28 05:00:00 3.9 0 Calma 4 Oeste 0 1027.2 -0.6 94
2019-03-28 04:00:00 5 3 Oeste 6 Este 0 1027.3 -0.8 91
2019-03-28 03:00:00 6.7 3 Este 10 Este 0 1027.5 -0.4 88
2019-03-28 02:00:00 7.4 4 Este 9 Este 0 1027.8 -0.1 85
2019-03-28 01:00:00 8.1 4 Este 13 Este 0 1028.1 0.5 83
2019-03-28 00:00:00 8.9 7 Este 17 Este 0 1027.9 0.6 80
2019-03-27 23:00:00 9 7 Este 17 Nordeste 0 1027.9 1.1 80
2019-03-27 22:00:00 9.5 9 Este 19 Nordeste 0 1027.6 1.4 77
2019-03-27 21:00:00 10 11 Este 26 Este 0 1027.3 1.5 76
2019-03-27 20:00:00 10.7 17 Este 36 Este 0 1026.8 1.3 74
2019-03-27 19:00:00 11.9 17 Este 41 Este 0 1026.2 0.6 70
2019-03-27 18:00:00 12.6 23 Este 44 Este 0 1025.8 0 66
2019-03-27 17:00:00 13.8 23 Este 43 Este 0 1025.5 -0.5 60
2019-03-27 16:00:00 14.5 19 Este 41 Este 0 1025.6 -0.5 61
2019-03-27 15:00:00 14.8 19 Este 44 Este 0 1025.8 -0.1 61
2019-03-27 14:00:00 14.6 21 Este 40 Este 0 1026 0.3 61
2019-03-27 13:00:00 14.8 19 Este 41 Este 0 1026.1 0.6 56
2019-03-27 12:00:00 14.6 17 Este 33 Este 0 1025.9 0.7 62
2019-03-27 11:00:00 14.2 17 Este 29 Este 0 1025.7 0.8 62
2019-03-27 10:00:00 13.4 12 Este 29 Este 0 1025.5 1 65
2019-03-27 09:00:00 11.6 7 Este 15 Este 0 1025.2 1.2 73
2019-03-27 08:00:00 7 3 Este 10 Este 0 1024.9 1.1 88
2019-03-27 07:00:00 8.4 5 Nordeste 13 Nordeste 0 1024.5 0.7 83
2019-03-27 06:00:00 8.9 9 Este 18 Este 0 1024 -0.1 83
2019-03-27 05:00:00 9.1 7 Este 17 Este 0 1023.8 -0.3 80
2019-03-27 04:00:00 8.9 5 Este 16 Este 0 1023.8 -0.3 79
2019-03-27 03:00:00 9.4 8 Este 20 Este 0 1024.1 0.1 75
2019-03-27 02:00:00 9.7 11 Este 23 Este 0 1024.1 0.3 73
2019-03-27 01:00:00 9.6 16 Este 32 Este 0 1024.1 0.6 74
2019-03-27 00:00:00 9.2 13 Este 35 Este 0 1024 0.7 75